createdAt,value
2018-11-11T00:03:43.674Z,6.00
2018-11-11T00:07:46.751Z,5.17
2018-11-11T00:11:49.823Z,5.90
2018-11-11T00:15:52.734Z,6.53
2018-11-11T00:19:55.574Z,6.20
2018-11-11T00:23:58.648Z,5.80
2018-11-11T00:28:01.495Z,6.37
2018-11-11T00:32:04.568Z,6.20
2018-11-11T00:36:07.435Z,5.87
2018-11-11T00:40:10.942Z,7.07
2018-11-11T00:44:14.008Z,6.60
2018-11-11T00:48:16.856Z,7.07
2018-11-11T00:52:19.698Z,6.37
2018-11-11T00:56:22.793Z,6.87
2018-11-11T01:00:26.266Z,8.20
2018-11-11T01:04:29.154Z,6.60
2018-11-11T01:08:32.003Z,6.90
2018-11-11T01:12:34.874Z,6.47
2018-11-11T01:16:37.775Z,6.00
2018-11-11T01:20:40.650Z,6.73
2018-11-11T01:24:43.712Z,7.17
2018-11-11T01:28:46.574Z,6.00
2018-11-11T01:32:49.426Z,6.00
2018-11-11T01:36:52.495Z,6.30
2018-11-11T01:40:55.345Z,6.07
2018-11-11T01:44:58.199Z,5.60
2018-11-11T01:49:01.043Z,5.47
2018-11-11T01:53:04.290Z,5.93
2018-11-11T01:57:07.371Z,5.40
2018-11-11T02:01:10.230Z,5.53
2018-11-11T02:05:13.803Z,5.80
2018-11-11T02:09:16.674Z,5.80
2018-11-11T02:13:19.735Z,5.80
2018-11-11T02:17:22.624Z,5.67
2018-11-11T02:21:25.740Z,4.60
2018-11-11T02:25:28.548Z,5.10
2018-11-11T02:29:31.395Z,4.67
2018-11-11T02:33:34.361Z,4.73
2018-11-11T02:37:37.569Z,4.30
2018-11-11T02:41:40.603Z,4.10
2018-11-11T02:45:43.695Z,3.77
2018-11-11T02:49:46.559Z,3.27
2018-11-11T02:53:49.613Z,2.97
2018-11-11T02:57:52.475Z,3.00
2018-11-11T03:01:55.343Z,2.87
2018-11-11T03:05:58.500Z,3.27
2018-11-11T03:10:01.349Z,2.60
2018-11-11T03:14:04.593Z,3.07
2018-11-11T03:18:07.465Z,3.00
2018-11-11T03:22:10.331Z,2.90
2018-11-11T03:26:13.383Z,2.70
2018-11-11T03:30:17.237Z,2.63
2018-11-11T03:34:20.072Z,3.00
2018-11-11T03:38:22.928Z,2.90
2018-11-11T03:42:25.774Z,2.10
2018-11-11T03:46:28.626Z,2.60
2018-11-11T03:50:31.687Z,2.17
2018-11-11T03:54:34.686Z,2.43
2018-11-11T03:58:37.586Z,2.97
2018-11-11T04:02:40.464Z,2.20
2018-11-11T04:06:43.310Z,2.60
2018-11-11T04:10:46.163Z,2.30
2018-11-11T04:14:49.230Z,2.30
2018-11-11T04:18:52.110Z,2.10
2018-11-11T04:22:54.954Z,2.20
2018-11-11T04:26:58.027Z,2.73
2018-11-11T04:31:00.875Z,1.33
2018-11-11T04:35:03.952Z,2.00
2018-11-11T04:39:07.788Z,1.80
2018-11-11T04:43:11.515Z,2.23
2018-11-11T04:47:14.599Z,2.33
2018-11-11T04:51:17.455Z,1.77
2018-11-11T04:55:20.510Z,2.90
2018-11-11T04:59:23.571Z,1.60
2018-11-11T05:03:26.415Z,1.80
2018-11-11T05:07:29.266Z,2.30
2018-11-11T05:11:32.319Z,2.43
2018-11-11T05:15:35.387Z,2.03
2018-11-11T05:19:38.246Z,2.13
2018-11-11T05:23:41.219Z,1.63
2018-11-11T05:27:44.602Z,2.30
2018-11-11T05:31:47.446Z,1.80
2018-11-11T05:35:50.288Z,1.80
2018-11-11T05:39:53.346Z,2.70
2018-11-11T05:43:56.191Z,2.37
2018-11-11T05:47:59.255Z,2.23
2018-11-11T05:52:02.106Z,1.90
2018-11-11T05:56:05.091Z,1.77
2018-11-11T06:00:09.510Z,2.53
2018-11-11T06:04:12.358Z,2.30
2018-11-11T06:08:15.222Z,1.30
2018-11-11T06:12:18.295Z,2.33
2018-11-11T06:16:21.138Z,2.10
2018-11-11T06:20:24.009Z,1.97
2018-11-11T06:24:27.063Z,2.50
2018-11-11T06:28:29.914Z,1.97
2018-11-11T06:32:32.763Z,2.03
2018-11-11T06:36:35.832Z,2.23
2018-11-11T06:40:38.682Z,2.13
2018-11-11T06:44:41.531Z,2.00
2018-11-11T06:48:44.383Z,2.10
2018-11-11T06:52:47.234Z,2.30
2018-11-11T06:56:50.090Z,2.77
2018-11-11T07:00:52.952Z,2.50
2018-11-11T07:04:55.794Z,2.50
2018-11-11T07:08:58.926Z,3.17
2018-11-11T07:13:01.776Z,2.13
2018-11-11T07:17:04.926Z,2.13
2018-11-11T07:21:08.007Z,4.00
2018-11-11T07:25:10.869Z,2.53
2018-11-11T07:29:13.773Z,2.17
2018-11-11T07:33:16.834Z,2.67
2018-11-11T07:37:20.003Z,2.17
2018-11-11T07:41:22.867Z,1.80
2018-11-11T07:45:25.770Z,3.37
2018-11-11T07:49:28.628Z,1.87
2018-11-11T07:53:31.471Z,2.13
2018-11-11T07:57:34.335Z,2.20
2018-11-11T08:01:37.458Z,1.63
2018-11-11T08:05:40.279Z,2.07
2018-11-11T08:09:43.113Z,2.50
2018-11-11T08:13:46.038Z,1.70
2018-11-11T08:17:48.866Z,1.30
2018-11-11T08:21:52.027Z,1.57
2018-11-11T08:25:54.883Z,1.80
2018-11-11T08:29:57.734Z,3.20
2018-11-11T08:34:00.598Z,1.87
2018-11-11T08:38:03.462Z,2.23
2018-11-11T08:42:06.306Z,1.57
2018-11-11T08:46:09.172Z,1.30
2018-11-11T08:50:12.936Z,1.90
2018-11-11T08:54:15.796Z,2.13
2018-11-11T08:58:18.648Z,2.10
2018-11-11T09:02:21.716Z,2.43
2018-11-11T09:06:24.551Z,2.03
2018-11-11T09:10:27.414Z,1.77
2018-11-11T09:14:30.473Z,2.43
2018-11-11T09:18:33.339Z,2.17
2018-11-11T09:22:36.219Z,1.87
2018-11-11T09:26:39.280Z,1.57
2018-11-11T09:30:42.187Z,1.80
2018-11-11T09:34:45.056Z,2.07
2018-11-11T09:38:47.922Z,1.70
2018-11-11T09:42:50.770Z,1.83
2018-11-11T09:46:53.615Z,1.93
2018-11-11T09:50:56.480Z,1.80
2018-11-11T09:54:59.422Z,2.50
2018-11-11T09:59:02.396Z,1.80
2018-11-11T10:03:10.719Z,2.30
2018-11-11T10:07:17.307Z,1.80
2018-11-11T10:11:25.386Z,1.83
2018-11-11T10:15:35.535Z,2.10
2018-11-11T10:20:42.431Z,2.20
2018-11-11T10:24:48.942Z,1.90
2018-11-11T10:28:57.271Z,1.83
2018-11-11T10:33:13.107Z,1.73
2018-11-11T10:37:19.170Z,2.27
2018-11-11T10:41:26.031Z,2.10
2018-11-11T10:45:39.117Z,2.30
2018-11-11T10:49:48.383Z,1.87
2018-11-11T10:53:51.461Z,1.77
2018-11-11T10:57:54.298Z,2.23
2018-11-11T11:02:02.659Z,1.90
2018-11-11T11:06:05.592Z,1.50
2018-11-11T11:10:08.836Z,1.97
2018-11-11T11:14:12.485Z,1.67
2018-11-11T11:18:15.362Z,1.83
2018-11-11T11:22:18.396Z,2.10
2018-11-11T11:26:21.251Z,2.07
2018-11-11T11:30:24.123Z,1.50
2018-11-11T11:34:26.986Z,1.60
2018-11-11T11:38:29.839Z,1.80
2018-11-11T11:42:32.707Z,1.90
2018-11-11T11:46:35.764Z,1.50
2018-11-11T11:50:38.628Z,1.67
2018-11-11T11:54:41.696Z,1.40
2018-11-11T11:58:44.555Z,2.17
2018-11-11T12:02:47.439Z,1.90
2018-11-11T12:06:50.524Z,2.00
2018-11-11T12:10:53.382Z,2.07
2018-11-11T12:14:56.243Z,1.63
2018-11-11T12:18:59.310Z,1.73
2018-11-11T12:23:02.597Z,1.80
2018-11-11T12:27:05.783Z,2.17
2018-11-11T12:31:08.676Z,1.80
2018-11-11T12:35:11.532Z,1.37
2018-11-11T12:39:14.504Z,1.80
2018-11-11T12:43:17.613Z,1.77
2018-11-11T12:47:20.447Z,2.17
2018-11-11T12:51:23.307Z,2.30
2018-11-11T12:55:26.493Z,1.67
2018-11-11T12:59:31.678Z,1.90
2018-11-11T13:03:34.751Z,2.00
2018-11-11T13:07:37.819Z,2.00
2018-11-11T13:11:40.893Z,2.40
2018-11-11T13:15:43.577Z,1.83
2018-11-11T13:19:46.458Z,1.77
2018-11-11T13:23:49.270Z,1.80
2018-11-11T13:27:52.158Z,1.80
2018-11-11T13:31:55.070Z,2.27
2018-11-11T13:35:57.874Z,2.13
2018-11-11T13:40:00.944Z,2.60
2018-11-11T13:44:03.863Z,2.17
2018-11-11T13:48:06.919Z,2.40
2018-11-11T13:52:09.783Z,1.77
2018-11-11T13:56:12.628Z,2.60
2018-11-11T14:00:26.703Z,1.67
2018-11-11T14:04:29.634Z,2.17
2018-11-11T14:08:32.486Z,2.40
2018-11-11T14:12:35.619Z,2.30
2018-11-11T14:16:38.906Z,2.23
2018-11-11T14:20:42.004Z,2.00
2018-11-11T14:24:45.143Z,3.03
2018-11-11T14:28:48.014Z,2.50
2018-11-11T14:32:51.991Z,2.40
2018-11-11T14:36:54.857Z,2.30
2018-11-11T14:40:57.710Z,2.40
2018-11-11T14:45:00.564Z,2.60
2018-11-11T14:49:03.469Z,2.40
2018-11-11T14:53:06.282Z,2.50
2018-11-11T14:57:09.163Z,2.50
2018-11-11T15:01:12.229Z,2.40
2018-11-11T15:05:15.062Z,3.43
2018-11-11T15:09:18.130Z,2.70
2018-11-11T15:13:20.985Z,2.70
2018-11-11T15:17:23.830Z,2.53
2018-11-11T15:21:26.707Z,2.40
2018-11-11T15:25:30.408Z,2.20
2018-11-11T15:29:33.252Z,2.93
2018-11-11T15:33:36.083Z,2.57
2018-11-11T15:37:39.447Z,2.30
2018-11-11T15:41:42.439Z,2.07
2018-11-11T15:45:45.149Z,2.40
2018-11-11T15:49:48.203Z,2.67
2018-11-11T15:53:51.070Z,2.50
2018-11-11T15:57:53.967Z,1.60
2018-11-11T16:01:57.044Z,2.00
2018-11-11T16:05:59.891Z,1.83
2018-11-11T16:10:02.778Z,2.40
2018-11-11T16:14:06.094Z,2.50
2018-11-11T16:18:11.031Z,1.90
2018-11-11T16:22:13.858Z,2.20
2018-11-11T16:26:16.710Z,2.03
2018-11-11T16:30:21.211Z,1.60
2018-11-11T16:34:24.091Z,1.83
2018-11-11T16:38:26.946Z,2.83
2018-11-11T16:42:29.835Z,1.70
2018-11-11T16:46:32.683Z,3.13
2018-11-11T16:50:36.405Z,2.23
2018-11-11T16:54:39.255Z,1.80
2018-11-11T16:58:42.129Z,1.90
2018-11-11T17:02:45.614Z,3.40
2018-11-11T17:06:48.478Z,2.53
2018-11-11T17:10:51.352Z,2.40
2018-11-11T17:14:54.223Z,2.27
2018-11-11T17:18:57.066Z,2.10
2018-11-11T17:23:01.572Z,3.07
2018-11-11T17:27:04.720Z,1.30
2018-11-11T17:31:07.605Z,1.60
2018-11-11T17:35:10.645Z,1.67
2018-11-11T17:39:13.552Z,1.80
2018-11-11T17:43:16.375Z,1.80
2018-11-11T17:47:19.258Z,1.50
2018-11-11T17:51:22.111Z,1.90
2018-11-11T17:55:25.752Z,1.57
2018-11-11T17:59:28.743Z,1.40
2018-11-11T18:03:31.719Z,1.80
2018-11-11T18:07:34.740Z,1.80
2018-11-11T18:11:38.178Z,1.70
2018-11-11T18:15:41.251Z,1.50
2018-11-11T18:19:44.158Z,2.10
2018-11-11T18:23:47.015Z,1.90
2018-11-11T18:27:49.979Z,2.13
2018-11-11T18:31:52.810Z,2.17
2018-11-11T18:35:55.917Z,2.60
2018-11-11T18:39:58.756Z,2.50
2018-11-11T18:44:01.822Z,3.00
2018-11-11T18:48:05.625Z,2.73
2018-11-11T18:52:08.726Z,3.60
2018-11-11T18:56:11.659Z,3.30
2018-11-11T19:00:22.926Z,3.33
2018-11-11T19:04:25.782Z,4.00
2018-11-11T19:08:28.641Z,3.90
2018-11-11T19:12:31.496Z,3.40
2018-11-11T19:16:34.446Z,3.83
2018-11-11T19:20:37.214Z,3.40
2018-11-11T19:24:40.229Z,4.27
2018-11-11T19:28:42.974Z,5.13
2018-11-11T19:32:46.608Z,4.90
2018-11-11T19:36:49.458Z,3.70
2018-11-11T19:40:52.306Z,3.90
2018-11-11T19:44:55.379Z,2.13
2018-11-11T19:48:58.250Z,2.10
2018-11-11T19:53:01.131Z,1.90
2018-11-11T19:57:04.058Z,1.60
2018-11-11T20:01:06.915Z,2.80
2018-11-11T20:05:11.399Z,2.30
2018-11-11T20:09:14.274Z,3.03
2018-11-11T20:13:17.131Z,3.30
2018-11-11T20:17:20.034Z,2.40
2018-11-11T20:21:23.055Z,2.90
2018-11-11T20:25:25.907Z,3.53
2018-11-11T20:29:28.775Z,4.53
2018-11-11T20:33:31.655Z,5.13
2018-11-11T20:37:34.515Z,4.30
2018-11-11T20:41:37.360Z,4.37
2018-11-11T20:45:40.219Z,4.93
2018-11-11T20:49:43.348Z,5.50
2018-11-11T20:53:46.178Z,4.60
2018-11-11T20:57:49.043Z,4.67
2018-11-11T21:01:52.107Z,4.27
2018-11-11T21:05:54.963Z,4.50
2018-11-11T21:09:57.847Z,3.60
2018-11-11T21:14:00.698Z,4.00
2018-11-11T21:18:03.767Z,4.20
2018-11-11T21:22:10.991Z,4.03
2018-11-11T21:26:13.839Z,4.23
2018-11-11T21:30:17.979Z,4.33
2018-11-11T21:34:20.864Z,3.90
2018-11-11T21:38:23.928Z,5.27
2018-11-11T21:42:26.770Z,4.20
2018-11-11T21:46:29.614Z,4.67
2018-11-11T21:50:32.757Z,4.70
2018-11-11T21:54:35.678Z,5.03
2018-11-11T21:58:38.583Z,4.40
2018-11-11T22:02:42.017Z,4.17
2018-11-11T22:06:44.875Z,4.63
2018-11-11T22:10:47.711Z,4.63
2018-11-11T22:14:50.562Z,5.53
2018-11-11T22:18:53.406Z,5.00
2018-11-11T22:22:56.481Z,5.13
2018-11-11T22:26:59.322Z,5.10
2018-11-11T22:31:02.379Z,5.10
2018-11-11T22:35:05.696Z,5.53
2018-11-11T22:39:09.414Z,5.50
2018-11-11T22:43:12.471Z,5.37
2018-11-11T22:47:15.331Z,5.00
2018-11-11T22:51:18.208Z,5.77
2018-11-11T22:55:21.055Z,7.17
2018-11-11T22:59:23.980Z,5.20
2018-11-11T23:03:26.831Z,5.97
2018-11-11T23:07:29.710Z,7.47
2018-11-11T23:11:32.747Z,5.93
2018-11-11T23:15:35.618Z,7.40
2018-11-11T23:19:38.687Z,6.80
2018-11-11T23:23:41.543Z,7.60
2018-11-11T23:27:44.604Z,6.33
2018-11-11T23:31:47.451Z,8.17
2018-11-11T23:35:50.379Z,7.07
2018-11-11T23:39:53.226Z,7.63
2018-11-11T23:43:56.079Z,8.90
2018-11-11T23:47:58.922Z,9.00
2018-11-11T23:52:01.992Z,9.30
2018-11-11T23:56:05.115Z,9.70
